Time;durP1;ratioP1;P1;durP2;ratioP2;P2;SDS_P1;SDS_P2;PMS_P1;PMS_P2;Temp;Humidity;BMP_temperature;BMP_pressure;BME280_temperature;BME280_humidity;BME280_pressure;Samples;Min_cycle;Max_cycle;Signal;HPM_P1;HPM_P2
2021/01/10 00:00:40;;;;;;;18.88;9.63;;;;;;;0.14;81.48;101103.66;18517088;28;20058;-70
2021/01/10 00:09:42;;;;;;;18.58;10.20;;;;;;;-0.14;84.05;101097.66;18513086;28;20074;-70
2021/01/10 00:18:43;;;;;;;21.00;11.73;;;;;;;-0.26;84.13;101105.38;18532258;28;20364;-71
2021/01/10 00:27:44;;;;;;;22.33;11.65;;;;;;;-0.48;86.11;101108.75;18544737;28;20133;-70
2021/01/10 00:36:45;;;;;;;27.08;12.15;;;;;;;-0.58;86.35;101104.47;18527324;28;20046;-71
2021/01/10 00:45:45;;;;;;;24.83;12.02;;;;;;;-0.72;87.36;101108.72;18527594;28;20575;-70
2021/01/10 00:54:46;;;;;;;26.67;11.70;;;;;;;-0.70;87.36;101119.84;18527077;28;20046;-70
2021/01/10 01:03:49;;;;;;;25.83;12.52;;;;;;;-0.80;88.06;101118.94;18525161;28;20183;-70
2021/01/10 01:12:50;;;;;;;20.63;11.20;;;;;;;-0.68;87.56;101123.28;18524597;28;20050;-71
2021/01/10 01:21:59;;;;;;;22.95;11.85;;;;;;;-0.70;88.73;101135.25;18524304;28;20423;-71
2021/01/10 01:31:01;;;;;;;21.83;11.70;;;;;;;-0.69;88.37;101139.56;18524086;28;20535;-71
2021/01/10 01:40:05;;;;;;;22.55;10.57;;;;;;;-0.72;88.37;101140.41;18524423;28;20046;-72
2021/01/10 01:49:08;;;;;;;25.75;11.55;;;;;;;-0.69;88.78;101144.69;18506161;28;20043;-71
2021/01/10 01:58:09;;;;;;;23.05;11.25;;;;;;;-0.81;90.06;101157.50;18522710;28;20411;-71
2021/01/10 02:07:22;;;;;;;21.70;11.32;;;;;;;-0.93;90.36;101155.75;18521543;28;20122;-71
2021/01/10 02:16:23;;;;;;;25.45;12.55;;;;;;;-0.89;90.48;101145.47;18522426;28;20051;-70
2021/01/10 02:25:25;;;;;;;24.60;12.68;;;;;;;-1.04;91.80;101145.41;18521314;28;20085;-71
2021/01/10 02:34:26;;;;;;;24.38;11.80;;;;;;;-1.06;92.01;101144.53;18519992;28;20506;-70
2021/01/10 02:43:29;;;;;;;23.58;12.63;;;;;;;-1.20;92.36;101132.47;18519463;28;20082;-71
2021/01/10 02:52:30;;;;;;;24.65;12.63;;;;;;;-1.29;92.69;101123.03;18519953;28;20419;-71
2021/01/10 03:01:33;;;;;;;23.45;11.75;;;;;;;-1.33;93.38;101129.00;18518792;28;20055;-71
2021/01/10 03:10:35;;;;;;;26.87;13.17;;;;;;;-1.51;94.01;101118.59;18519382;28;20399;-71
2021/01/10 03:19:36;;;;;;;21.83;11.20;;;;;;;-1.64;94.65;101117.69;18519665;28;20055;-71
2021/01/10 03:28:37;;;;;;;23.33;12.60;;;;;;;-1.66;95.85;101118.50;18518667;28;20492;-71
2021/01/10 03:37:39;;;;;;;23.65;12.18;;;;;;;-1.61;94.81;101121.97;18519998;28;20069;-71
2021/01/10 03:46:41;;;;;;;22.40;11.73;;;;;;;-1.66;94.99;101119.38;18532463;28;20069;-71
2021/01/10 03:55:42;;;;;;;22.85;11.55;;;;;;;-1.59;95.12;101123.69;18531306;28;20046;-70
2021/01/10 04:04:43;;;;;;;22.42;11.60;;;;;;;-1.72;94.80;101112.47;18529504;28;20062;-70
2021/01/10 04:13:44;;;;;;;22.88;11.45;;;;;;;-1.74;95.45;101114.19;18529767;28;20057;-70
2021/01/10 04:22:45;;;;;;;24.30;11.60;;;;;;;-1.84;95.44;101117.53;18529304;28;20070;-71
2021/01/10 04:31:48;;;;;;;21.05;10.45;;;;;;;-1.96;95.88;101121.69;18528199;28;20055;-71
2021/01/10 04:40:50;;;;;;;22.65;11.48;;;;;;;-2.12;97.63;101128.41;18529003;28;20133;-71
2021/01/10 04:49:51;;;;;;;23.10;11.73;;;;;;;-2.24;97.36;101116.34;18528912;28;20050;-71
2021/01/10 04:58:54;;;;;;;22.13;10.93;;;;;;;-2.32;97.64;101119.66;18526442;28;20051;-70
2021/01/10 05:07:56;;;;;;;22.80;11.60;;;;;;;-2.36;98.94;101128.19;18525169;28;20058;-70
2021/01/10 05:16:59;;;;;;;23.35;11.93;;;;;;;-2.40;98.09;101127.31;18525573;28;20055;-70
2021/01/10 05:26:05;;;;;;;21.35;10.80;;;;;;;-2.66;99.95;101123.59;18524716;28;20098;-71
2021/01/10 05:35:06;;;;;;;23.13;11.07;;;;;;;-2.76;100.00;101127.78;18523583;28;20058;-71
2021/01/10 05:44:07;;;;;;;24.25;11.13;;;;;;;-2.87;100.00;101126.78;18523779;28;20083;-71
2021/01/10 05:53:41;;;;;;;24.75;11.30;;;;;;;-2.86;100.00;101130.22;18523299;28;20058;-70
2021/01/10 06:02:44;;;;;;;;;;;;;;;-3.07;100.00;101130.81;18500361;28;20047;-71
2021/01/10 06:11:45;;;;;;;22.70;11.20;;;;;;;-3.01;100.00;101136.00;18522270;28;19961;-71
2021/01/10 06:20:48;;;;;;;21.35;11.38;;;;;;;-3.09;100.00;101129.91;18521362;28;20093;-71
2021/01/10 06:29:55;;;;;;;21.98;10.60;;;;;;;-3.18;100.00;101132.34;18522412;28;20054;-71
2021/01/10 06:39:15;;;;;;;25.77;12.73;;;;;;;-3.24;100.00;101142.50;18521223;28;20047;-71
2021/01/10 06:48:24;;;;;;;24.77;12.73;;;;;;;-3.25;100.00;101145.94;18522593;28;20078;-71
2021/01/10 06:57:32;;;;;;;26.25;11.23;;;;;;;-3.24;100.00;101142.50;18521610;28;20055;-72
2021/01/10 07:06:43;;;;;;;25.63;10.85;;;;;;;-3.25;100.00;101143.38;18515029;28;20058;-70
2021/01/10 07:15:44;;;;;;;21.23;9.52;;;;;;;-3.28;100.00;101146.75;18530123;28;20054;-70
2021/01/10 07:24:45;;;;;;;24.33;11.25;;;;;;;-3.27;100.00;101137.38;18535512;28;20508;-71
2021/01/10 07:33:47;;;;;;;19.73;10.00;;;;;;;-3.19;100.00;101151.13;18533906;28;20074;-69
2021/01/10 07:42:59;;;;;;;26.93;12.37;;;;;;;-3.01;100.00;101159.06;18532980;28;20086;-69
2021/01/10 07:52:00;;;;;;;22.13;10.57;;;;;;;-2.87;99.70;101154.97;18533088;28;20066;-70
2021/01/10 08:01:01;;;;;;;21.92;11.18;;;;;;;-2.89;100.00;101166.00;18534263;28;20047;-69
2021/01/10 08:10:02;;;;;;;21.80;10.98;;;;;;;-2.80;99.31;101164.44;18532269;28;20047;-70
2021/01/10 08:19:06;;;;;;;22.48;10.68;;;;;;;-2.60;98.79;101174.94;18530531;28;20058;-70
2021/01/10 08:28:06;;;;;;;23.38;11.75;;;;;;;-2.47;97.62;101175.91;18529580;28;20162;-71
2021/01/10 08:37:08;;;;;;;21.27;11.32;;;;;;;-2.33;97.42;101184.59;18528383;28;20103;-70
2021/01/10 08:46:10;;;;;;;21.83;10.73;;;;;;;-2.28;96.67;101191.50;18528784;28;20058;-70
2021/01/10 08:55:11;;;;;;;24.20;10.97;;;;;;;-2.16;95.28;101201.03;18527756;28;20499;-69
2021/01/10 09:04:14;;;;;;;22.67;10.70;;;;;;;-2.14;95.52;101193.34;18526766;28;20061;-69
2021/01/10 09:13:18;;;;;;;21.67;10.83;;;;;;;-1.95;93.45;101203.81;18526990;28;20051;-69
2021/01/10 09:22:19;;;;;;;22.00;11.38;;;;;;;-1.86;92.97;101215.84;18525845;28;20479;-69
2021/01/10 09:31:20;;;;;;;20.75;11.15;;;;;;;-1.83;92.77;101215.91;18525026;28;20055;-70
2021/01/10 09:40:21;;;;;;;20.85;10.90;;;;;;;-1.81;92.58;101202.22;18523398;28;20463;-69
2021/01/10 09:49:29;;;;;;;24.10;12.02;;;;;;;-1.72;92.19;101207.41;18525665;28;20047;-68
2021/01/10 09:58:32;;;;;;;24.38;12.30;;;;;;;-1.72;93.48;101204.00;18524945;28;20051;-68
2021/01/10 10:07:41;;;;;;;21.00;10.77;;;;;;;-1.65;91.93;101207.47;18524456;28;20094;-69
2021/01/10 10:16:42;;;;;;;20.38;9.95;;;;;;;-1.24;89.95;101194.94;18518141;28;20053;-69
2021/01/10 10:25:46;;;;;;;19.35;9.77;;;;;;;-1.04;89.94;101189.09;18519584;28;20062;-69
2021/01/10 10:34:47;;;;;;;21.38;10.75;;;;;;;-0.74;88.02;101177.22;18519071;28;20053;-69
2021/01/10 10:43:48;;;;;;;18.55;9.38;;;;;;;-0.44;85.99;101177.34;18518365;28;20384;-69
2021/01/10 10:52:50;;;;;;;21.63;9.80;;;;;;;-0.14;83.73;101166.25;18518464;28;20422;-70
2021/01/10 11:01:51;;;;;;;19.55;9.85;;;;;;;0.01;80.19;101163.69;18517147;28;20039;-71
2021/01/10 11:10:52;;;;;;;16.38;8.50;;;;;;;0.22;79.24;101150.84;18517173;28;20043;-70
2021/01/10 11:19:53;;;;;;;17.38;8.88;;;;;;;0.32;78.66;101146.53;18517004;28;20138;-70
2021/01/10 11:28:55;;;;;;;19.60;9.18;;;;;;;0.40;79.01;101142.25;18500825;28;20046;-70
2021/01/10 11:37:56;;;;;;;19.80;9.68;;;;;;;0.60;76.78;101125.06;18515510;28;20133;-69
2021/01/10 11:46:59;;;;;;;13.40;6.55;;;;;;;0.81;74.57;101113.84;18516435;28;20047;-69
2021/01/10 11:56:03;;;;;;;13.60;7.03;;;;;;;0.80;74.04;101105.25;18516709;28;20043;-69
2021/01/10 12:05:05;;;;;;;12.43;6.60;;;;;;;1.05;73.70;101102.59;18527712;28;20051;-69
2021/01/10 12:14:07;;;;;;;12.90;6.65;;;;;;;1.15;72.88;101106.84;18530633;28;20043;-70
2021/01/10 12:23:09;;;;;;;12.20;6.05;;;;;;;1.34;70.07;101098.13;18524714;28;20419;-72
2021/01/10 12:32:10;;;;;;;9.88;5.45;;;;;;;1.46;68.86;101082.59;18527583;28;20042;-69
2021/01/10 12:41:11;;;;;;;9.13;4.95;;;;;;;1.54;69.02;101077.38;18526827;28;20131;-69
2021/01/10 12:50:15;;;;;;;8.85;4.65;;;;;;;1.72;67.47;101079.84;18527842;28;20487;-70
2021/01/10 12:59:16;;;;;;;7.87;4.17;;;;;;;1.65;67.35;101073.88;18526574;28;20055;-72
2021/01/10 13:08:17;;;;;;;11.40;4.50;;;;;;;1.76;67.04;101080.69;18525116;28;20038;-72
2021/01/10 13:17:19;;;;;;;7.80;4.00;;;;;;;1.47;68.14;101080.88;18527055;28;20054;-71
2021/01/10 13:26:20;;;;;;;7.82;3.90;;;;;;;1.48;68.37;101075.69;18532404;28;20042;-71
2021/01/10 13:35:21;;;;;;;8.98;4.60;;;;;;;1.71;66.24;101065.22;18566739;28;20054;-71
2021/01/10 13:44:24;;;;;;;8.88;4.40;;;;;;;1.72;65.96;101054.03;18544813;28;20042;-71
2021/01/10 13:53:25;;;;;;;8.15;4.20;;;;;;;1.63;66.74;101057.53;18536765;28;20434;-71
2021/01/10 14:02:27;;;;;;;10.05;5.20;;;;;;;1.72;67.40;101054.03;18520675;28;20047;-71
2021/01/10 14:11:33;;;;;;;10.35;6.03;;;;;;;1.66;68.52;101052.38;18522866;28;20054;-70
2021/01/10 14:20:40;;;;;;;11.07;5.65;;;;;;;1.65;68.00;101058.38;18513789;28;20075;-71
2021/01/10 14:29:41;;;;;;;9.10;4.85;;;;;;;1.64;68.63;101055.81;18520043;28;20039;-71
2021/01/10 14:38:42;;;;;;;10.05;5.22;;;;;;;1.72;67.85;101059.22;18516975;28;20133;-74
2021/01/10 14:47:46;;;;;;;9.38;5.55;;;;;;;1.63;68.69;101054.94;18516446;28;20047;-70
2021/01/10 14:56:47;;;;;;;14.20;6.53;;;;;;;1.52;68.55;101077.41;18516734;28;20511;-70
2021/01/10 15:05:48;;;;;;;16.45;7.65;;;;;;;1.58;67.76;101079.06;18516871;28;20054;-71
2021/01/10 15:14:48;;;;;;;15.05;7.25;;;;;;;1.45;68.29;101087.75;18515837;28;20043;-69
2021/01/10 15:23:50;;;;;;;15.23;7.97;;;;;;;1.19;69.99;101095.63;18490958;28;20130;-68
2021/01/10 15:32:52;;;;;;;18.25;9.50;;;;;;;1.00;71.90;101099.16;18516928;28;20070;-69
2021/01/10 15:41:53;;;;;;;12.75;6.47;;;;;;;0.74;72.60;101092.38;18529314;28;20384;-69
2021/01/10 15:50:57;;;;;;;12.52;6.60;;;;;;;0.40;76.56;101103.66;18532208;28;20047;-69
2021/01/10 15:59:58;;;;;;;11.25;5.78;;;;;;;0.10;78.44;101111.41;18528997;28;20128;-70
2021/01/10 16:09:00;;;;;;;14.52;7.30;;;;;;;-0.11;79.73;101110.53;18528095;28;20076;-69
2021/01/10 16:18:02;;;;;;;16.27;7.23;;;;;;;-0.19;80.93;101117.38;18526462;28;20058;-69
2021/01/10 16:27:08;;;;;;;20.20;9.98;;;;;;;0.08;79.83;101115.69;18526751;28;20306;-69
2021/01/10 16:36:09;;;;;;;19.90;10.32;;;;;;;0.15;78.60;101114.81;18509176;28;20062;-69
2021/01/10 16:45:11;;;;;;;25.15;13.27;;;;;;;-0.01;79.95;101114.81;18526350;28;20050;-69
2021/01/10 16:54:22;;;;;;;20.47;10.67;;;;;;;0.02;79.74;101120.81;18511486;28;20050;-69
2021/01/10 17:03:23;;;;;;;19.73;10.20;;;;;;;0.18;78.66;101125.09;18525421;28;20058;-69
2021/01/10 17:12:28;;;;;;;18.55;9.20;;;;;;;0.06;79.82;101122.53;18524842;28;20047;-70
2021/01/10 17:21:29;;;;;;;26.65;11.70;;;;;;;-0.16;79.98;101124.25;18524255;28;20047;-69
2021/01/10 17:30:30;;;;;;;18.23;10.32;;;;;;;-0.26;81.36;101123.38;18523015;28;20059;-69
2021/01/10 17:39:31;;;;;;;22.92;11.48;;;;;;;-0.29;81.56;101125.94;18524347;28;20057;-69
2021/01/10 17:48:32;;;;;;;29.40;13.00;;;;;;;-0.90;85.34;101125.78;18523232;28;20083;-69
2021/01/10 17:57:33;;;;;;;22.40;11.68;;;;;;;-1.19;86.85;101132.50;18519084;28;20522;-69
2021/01/10 18:06:35;;;;;;;28.63;13.38;;;;;;;-1.30;86.35;101134.13;18519994;28;20057;-70
2021/01/10 18:15:37;;;;;;;31.03;16.13;;;;;;;-1.32;86.85;101146.09;18521607;28;20138;-70
2021/01/10 18:24:39;;;;;;;26.67;15.20;;;;;;;-1.56;88.12;101151.94;18520710;28;20058;-71
2021/01/10 18:33:40;;;;;;;33.88;18.08;;;;;;;-1.69;89.21;101151.84;18519771;28;20442;-71
2021/01/10 18:42:41;;;;;;;30.85;16.15;;;;;;;-1.87;90.29;101152.56;18520310;28;20047;-70
2021/01/10 18:51:42;;;;;;;28.10;14.07;;;;;;;-1.80;89.51;101152.63;18519561;28;20047;-70
2021/01/10 19:00:43;;;;;;;28.73;13.82;;;;;;;-1.95;90.21;101159.34;18518110;28;20055;-71
2021/01/10 19:09:44;;;;;;;25.65;11.93;;;;;;;-2.20;91.78;101155.69;18525387;28;20051;-70
2021/01/10 19:18:46;;;;;;;24.75;11.70;;;;;;;-2.31;92.57;101147.91;18533411;28;20085;-70
2021/01/10 19:27:48;;;;;;;24.42;11.07;;;;;;;-2.38;94.34;101148.66;18531902;28;20057;-71
2021/01/10 19:36:49;;;;;;;21.23;11.32;;;;;;;-2.49;94.50;101151.97;18535251;28;20050;-71
2021/01/10 19:45:51;;;;;;;24.63;11.73;;;;;;;-2.58;95.73;101151.03;18528470;28;20129;-70
2021/01/10 19:54:52;;;;;;;24.50;12.05;;;;;;;-2.70;97.18;101152.59;18533353;28;20102;-70
2021/01/10 20:03:54;;;;;;;26.33;12.93;;;;;;;-2.80;96.00;101151.63;18536488;28;20046;-70
2021/01/10 20:12:56;;;;;;;29.57;14.30;;;;;;;-2.84;97.14;101159.25;18549904;28;20054;-70
2021/01/10 20:22:00;;;;;;;31.52;15.63;;;;;;;-2.73;97.47;101161.09;18533737;28;20053;-70
2021/01/10 20:31:01;;;;;;;31.65;15.85;;;;;;;-2.77;96.46;101161.03;18510844;28;20507;-71
2021/01/10 20:40:02;;;;;;;30.08;14.13;;;;;;;-2.86;97.93;101154.13;18510759;28;20361;-71
2021/01/10 20:49:03;;;;;;;31.33;16.42;;;;;;;-2.83;96.96;101156.72;18527085;28;20047;-71
2021/01/10 20:58:04;;;;;;;34.45;17.67;;;;;;;-2.88;97.13;101152.38;18527198;28;20618;-71
2021/01/10 21:07:06;;;;;;;28.23;15.38;;;;;;;-3.10;99.00;101148.69;18516709;28;20057;-71
2021/01/10 21:16:06;;;;;;;34.63;16.83;;;;;;;-3.15;98.78;101158.84;18523886;28;20053;-71
2021/01/10 21:25:09;;;;;;;34.05;17.55;;;;;;;-3.22;99.54;101153.66;18525661;28;20043;-71
2021/01/10 21:34:09;;;;;;;32.53;16.33;;;;;;;-3.26;100.00;101149.31;18522803;28;20483;-73
2021/01/10 21:43:10;;;;;;;32.30;16.33;;;;;;;-3.32;100.00;101144.97;18522876;28;20066;-72
2021/01/10 21:52:11;;;;;;;29.77;14.73;;;;;;;-3.38;100.00;101154.25;18523231;28;20518;-73
2021/01/10 22:01:14;;;;;;;29.23;15.07;;;;;;;-3.57;100.00;101146.34;18524106;28;20062;-72
2021/01/10 22:10:15;;;;;;;31.75;15.73;;;;;;;-3.73;100.00;101152.03;18524370;28;20051;-72
2021/01/10 22:19:16;;;;;;;28.83;15.40;;;;;;;-3.81;100.00;101152.78;18523336;28;20093;-71
2021/01/10 22:28:17;;;;;;;29.40;14.00;;;;;;;-3.83;100.00;101162.09;18500400;28;20086;-73
2021/01/10 22:37:18;;;;;;;26.05;14.20;;;;;;;-3.86;100.00;101169.75;18521075;28;20055;-71
2021/01/10 22:46:20;;;;;;;28.20;13.52;;;;;;;-4.02;100.00;101173.72;18521196;28;20427;-70
2021/01/10 22:55:23;;;;;;;;;;;;;;;-3.99;100.00;101158.44;18522089;28;20079;-72
2021/01/10 23:04:24;;;;;;;28.48;13.52;;;;;;;-4.12;100.00;101151.41;18508090;28;19926;-72
2021/01/10 23:13:25;;;;;;;32.47;14.98;;;;;;;-4.05;100.00;101143.00;18518016;28;20101;-71
2021/01/10 23:22:25;;;;;;;29.15;14.57;;;;;;;-4.04;100.00;101131.94;18518784;28;20133;-72
2021/01/10 23:31:26;;;;;;;35.28;16.10;;;;;;;-3.99;100.00;101131.19;18518386;28;20083;-72
2021/01/10 23:40:31;;;;;;;35.78;16.33;;;;;;;-3.78;100.00;101132.34;18519770;28;20416;-73
2021/01/10 23:49:32;;;;;;;37.70;17.23;;;;;;;-3.91;100.00;101121.06;18501066;28;20055;-70
2021/01/10 23:58:33;;;;;;;33.75;17.42;;;;;;;-3.94;100.00;101121.88;18526040;28;20487;-73
